Time,TemperatureF,DewpointF,PressureIn,WindDirection,WindDirectionDegrees,WindSpeedMPH,WindSpeedGustMPH,Humidity,HourlyPrecipIn,Conditions,Clouds,dailyrainin,SoftwareType,DateUTC
2013-01-06 00:01:00,26.9,21.3,29.92,WNW,282,1.0,1.0,79,0.00,,,0.00,Wunderground v.1.15,2013-01-06 06:01:00,
2013-01-06 00:06:00,26.5,20.9,29.92,WNW,282,0.0,0.0,79,0.00,,,0.00,Wunderground v.1.15,2013-01-06 06:06:00,
2013-01-06 00:16:00,25.8,20.2,29.92,WNW,287,0.0,0.0,79,0.00,,,0.00,Wunderground v.1.15,2013-01-06 06:16:00,
2013-01-06 00:26:00,25.4,19.8,29.92,SW,224,0.0,1.0,79,0.00,,,0.00,Wunderground v.1.15,2013-01-06 06:26:00,
2013-01-06 00:31:00,25.2,19.6,29.92,West,280,1.0,1.0,79,0.00,,,0.00,Wunderground v.1.15,2013-01-06 06:31:00,
2013-01-06 00:36:00,25.1,19.5,29.92,West,280,1.0,1.0,79,0.00,,,0.00,Wunderground v.1.15,2013-01-06 06:36:00,
2013-01-06 00:41:00,24.9,19.3,29.92,West,281,1.0,2.0,79,0.00,,,0.00,Wunderground v.1.15,2013-01-06 06:41:00,
2013-01-06 00:46:00,24.7,19.1,29.92,West,273,1.0,1.0,79,0.00,,,0.00,Wunderground v.1.15,2013-01-06 06:46:00,
2013-01-06 00:52:00,24.5,18.9,29.92,West,276,1.0,1.0,79,0.00,,,0.00,Wunderground v.1.15,2013-01-06 06:52:00,
2013-01-06 01:02:00,24.1,18.5,29.92,West,280,1.0,2.0,79,0.00,,,0.00,Wunderground v.1.15,2013-01-06 07:02:00,
2013-01-06 01:07:00,23.9,18.0,29.93,WNW,284,1.0,1.0,78,0.00,,,0.00,Wunderground v.1.15,2013-01-06 07:07:00,
2013-01-06 01:12:00,23.8,18.2,29.93,NNW,338,1.0,1.0,79,0.00,,,0.00,Wunderground v.1.15,2013-01-06 07:12:00,
2013-01-06 01:17:00,23.7,17.8,29.93,West,279,1.0,2.0,78,0.00,,,0.00,Wunderground v.1.15,2013-01-06 07:17:00,
2013-01-06 01:22:00,23.5,17.6,29.93,WSW,256,1.0,2.0,78,0.00,,,0.00,Wunderground v.1.15,2013-01-06 07:22:00,
2013-01-06 01:27:00,23.3,17.2,29.93,WNW,288,1.0,1.0,77,0.00,,,0.00,Wunderground v.1.15,2013-01-06 07:27:00,
2013-01-06 01:32:00,23.1,17.0,29.92,WNW,288,1.0,1.0,77,0.00,,,0.00,Wunderground v.1.15,2013-01-06 07:32:00,
2013-01-06 01:42:00,22.6,16.5,29.92,WNW,287,0.0,0.0,77,0.00,,,0.00,Wunderground v.1.15,2013-01-06 07:42:00,
2013-01-06 01:47:00,22.4,16.6,29.93,WNW,288,0.0,1.0,78,0.00,,,0.00,Wunderground v.1.15,2013-01-06 07:47:00,
2013-01-06 01:52:00,22.1,16.3,29.93,NNE,24,0.0,1.0,78,0.00,,,0.00,Wunderground v.1.15,2013-01-06 07:52:00,
2013-01-06 01:57:00,21.9,16.1,29.93,NNE,24,0.0,0.0,78,0.00,,,0.00,Wunderground v.1.15,2013-01-06 07:57:00,
2013-01-06 02:02:00,21.7,16.2,29.94,North,5,0.0,0.0,79,0.00,,,0.00,Wunderground v.1.15,2013-01-06 08:02:00,
2013-01-06 02:07:00,21.5,15.7,29.93,North,5,0.0,0.0,78,0.00,,,0.00,Wunderground v.1.15,2013-01-06 08:07:00,
2013-01-06 02:12:00,21.1,15.6,29.94,North,360,0.0,0.0,79,0.00,,,0.00,Wunderground v.1.15,2013-01-06 08:12:00,
2013-01-06 02:17:00,20.9,15.4,29.94,North,5,0.0,0.0,79,0.00,,,0.00,Wunderground v.1.15,2013-01-06 08:17:00,
2013-01-06 02:27:00,20.6,15.1,29.94,North,5,0.0,0.0,79,0.00,,,0.00,Wunderground v.1.15,2013-01-06 08:27:00,
2013-01-06 02:37:00,20.4,15.2,29.94,North,5,0.0,0.0,80,0.00,,,0.00,Wunderground v.1.15,2013-01-06 08:37:00,
2013-01-06 02:42:00,20.5,15.3,29.94,North,360,0.0,0.0,80,0.00,,,0.00,Wunderground v.1.15,2013-01-06 08:42:00,
2013-01-06 02:47:00,20.4,15.2,29.94,NW,311,0.0,0.0,80,0.00,,,0.00,Wunderground v.1.15,2013-01-06 08:47:00,
2013-01-06 02:52:00,20.4,15.2,29.95,NW,317,0.0,0.0,80,0.00,,,0.00,Wunderground v.1.15,2013-01-06 08:52:00,
2013-01-06 02:57:00,20.3,15.1,29.95,NW,317,0.0,0.0,80,0.00,,,0.00,Wunderground v.1.15,2013-01-06 08:57:00,
2013-01-06 03:02:00,20.3,15.1,29.95,NW,304,0.0,0.0,80,0.00,,,0.00,Wunderground v.1.15,2013-01-06 09:02:00,
2013-01-06 03:12:00,20.2,15.3,29.95,NNW,332,0.0,0.0,81,0.00,,,0.00,Wunderground v.1.15,2013-01-06 09:12:00,
2013-01-06 03:17:00,20.2,15.3,29.95,West,273,0.0,0.0,81,0.00,,,0.00,Wunderground v.1.15,2013-01-06 09:17:00,
2013-01-06 03:27:00,20.3,15.7,29.96,West,274,0.0,0.0,82,0.00,,,0.00,Wunderground v.1.15,2013-01-06 09:27:00,
2013-01-06 03:32:00,20.4,15.8,29.96,West,274,0.0,0.0,82,0.00,,,0.00,Wunderground v.1.15,2013-01-06 09:32:00,
2013-01-06 03:41:00,20.5,15.9,29.96,West,273,0.0,2.0,82,0.00,,,0.00,Wunderground v.1.15,2013-01-06 09:41:00,
2013-01-06 03:46:00,20.6,16.0,29.96,West,281,1.0,1.0,82,0.00,,,0.00,Wunderground v.1.15,2013-01-06 09:46:00,
2013-01-06 03:51:00,20.6,16.0,29.96,West,281,0.0,1.0,82,0.00,,,0.00,Wunderground v.1.15,2013-01-06 09:51:00,
2013-01-06 04:01:00,20.7,16.4,29.96,West,267,0.0,1.0,83,0.00,,,0.00,Wunderground v.1.15,2013-01-06 10:01:00,
2013-01-06 04:06:00,20.8,16.5,29.96,West,267,0.0,0.0,83,0.00,,,0.00,Wunderground v.1.15,2013-01-06 10:06:00,
2013-01-06 04:11:00,20.9,16.5,29.96,WNW,288,0.0,0.0,83,0.00,,,0.00,Wunderground v.1.15,2013-01-06 10:11:00,
2013-01-06 04:16:00,21.1,16.7,29.96,NW,306,1.0,1.0,83,0.00,,,0.00,Wunderground v.1.15,2013-01-06 10:16:00,
2013-01-06 04:21:00,21.2,16.6,29.96,West,265,1.0,1.0,82,0.00,,,0.00,Wunderground v.1.15,2013-01-06 10:21:00,
2013-01-06 04:26:00,21.2,16.8,29.96,WNW,293,1.0,1.0,83,0.00,,,0.00,Wunderground v.1.15,2013-01-06 10:26:00,
2013-01-06 04:31:00,21.3,16.9,29.96,WNW,293,0.0,1.0,83,0.00,,,0.00,Wunderground v.1.15,2013-01-06 10:31:00,
2013-01-06 04:41:00,21.4,17.0,29.97,NW,322,0.0,2.0,83,0.00,,,0.00,Wunderground v.1.15,2013-01-06 10:41:00,
2013-01-06 04:46:00,21.5,17.4,29.97,NW,315,0.0,0.0,84,0.00,,,0.00,Wunderground v.1.15,2013-01-06 10:46:00,
2013-01-06 04:51:00,21.6,17.5,29.97,NW,317,0.0,0.0,84,0.00,,,0.00,Wunderground v.1.15,2013-01-06 10:51:00,
2013-01-06 04:56:00,21.6,17.5,29.97,NW,314,0.0,0.0,84,0.00,,,0.00,Wunderground v.1.15,2013-01-06 10:56:00,
2013-01-06 05:01:00,21.7,17.6,29.97,NNW,338,0.0,2.0,84,0.00,,,0.00,Wunderground v.1.15,2013-01-06 11:01:00,
2013-01-06 05:06:00,21.7,17.9,29.97,NNW,337,1.0,1.0,85,0.00,,,0.00,Wunderground v.1.15,2013-01-06 11:06:00,
2013-01-06 05:16:00,21.7,17.9,29.98,NNW,337,0.0,0.0,85,0.00,,,0.00,Wunderground v.1.15,2013-01-06 11:16:00,
2013-01-06 05:21:00,21.7,18.2,29.98,NNW,338,0.0,0.0,86,0.00,,,0.00,Wunderground v.1.15,2013-01-06 11:21:00,
2013-01-06 05:31:00,21.7,18.2,29.98,NNW,338,0.0,0.0,86,0.00,,,0.00,Wunderground v.1.15,2013-01-06 11:31:00,
2013-01-06 05:36:00,21.6,18.1,29.98,West,268,0.0,1.0,86,0.00,,,0.00,Wunderground v.1.15,2013-01-06 11:36:00,
2013-01-06 05:41:00,21.5,18.0,29.98,NW,304,0.0,1.0,86,0.00,,,0.00,Wunderground v.1.15,2013-01-06 11:41:00,
2013-01-06 05:46:00,21.3,18.0,29.98,NW,304,0.0,0.0,87,0.00,,,0.00,Wunderground v.1.15,2013-01-06 11:46:00,
2013-01-06 05:51:00,21.2,17.9,29.99,NW,304,0.0,0.0,87,0.00,,,0.00,Wunderground v.1.15,2013-01-06 11:51:00,
2013-01-06 05:56:00,21.1,17.8,29.99,NW,304,0.0,0.0,87,0.00,,,0.00,Wunderground v.1.15,2013-01-06 11:56:00,
2013-01-06 06:01:00,21.0,17.7,29.99,NNW,329,0.0,0.0,87,0.00,,,0.00,Wunderground v.1.15,2013-01-06 12:01:00,
2013-01-06 06:11:00,20.9,17.9,29.99,NNW,329,0.0,0.0,88,0.00,,,0.00,Wunderground v.1.15,2013-01-06 12:11:00,
2013-01-06 06:16:00,20.9,17.9,29.99,NW,311,0.0,0.0,88,0.00,,,0.00,Wunderground v.1.15,2013-01-06 12:16:00,
2013-01-06 06:21:00,21.0,18.0,29.99,NW,312,0.0,0.0,88,0.00,,,0.00,Wunderground v.1.15,2013-01-06 12:21:00,
2013-01-06 06:26:00,21.1,18.1,30.00,NW,306,0.0,0.0,88,0.00,,,0.00,Wunderground v.1.15,2013-01-06 12:26:00,
2013-01-06 06:36:00,21.2,18.2,30.00,WNW,284,0.0,0.0,88,0.00,,,0.00,Wunderground v.1.15,2013-01-06 12:36:00,
2013-01-06 06:41:00,21.2,18.2,30.01,WNW,285,1.0,1.0,88,0.00,,,0.00,Wunderground v.1.15,2013-01-06 12:41:00,
2013-01-06 06:46:00,21.2,18.2,30.02,WNW,282,0.0,0.0,88,0.00,,,0.00,Wunderground v.1.15,2013-01-06 12:46:00,
2013-01-06 06:52:00,21.3,18.3,30.02,West,281,0.0,1.0,88,0.00,,,0.00,Wunderground v.1.15,2013-01-06 12:52:00,
2013-01-06 06:57:00,21.3,18.3,30.02,WNW,282,0.0,0.0,88,0.00,,,0.00,Wunderground v.1.15,2013-01-06 12:57:00,
2013-01-06 07:02:00,21.4,18.4,30.03,West,281,0.0,0.0,88,0.00,,,0.00,Wunderground v.1.15,2013-01-06 13:02:00,
2013-01-06 07:07:00,21.4,18.4,30.03,West,281,0.0,0.0,88,0.00,,,0.00,Wunderground v.1.15,2013-01-06 13:07:00,
2013-01-06 07:12:00,21.4,18.4,30.03,West,281,0.0,0.0,88,0.00,,,0.00,Wunderground v.1.15,2013-01-06 13:12:00,
2013-01-06 07:17:00,21.3,18.3,30.03,WNW,292,1.0,1.0,88,0.00,,,0.00,Wunderground v.1.15,2013-01-06 13:17:00,
2013-01-06 07:27:00,21.4,18.4,30.04,West,277,0.0,1.0,88,0.00,,,0.00,Wunderground v.1.15,2013-01-06 13:27:00,
2013-01-06 07:37:00,21.4,18.4,30.05,WSW,258,1.0,2.0,88,0.00,,,0.00,Wunderground v.1.15,2013-01-06 13:37:00,
2013-01-06 07:42:00,21.5,18.5,30.05,West,259,0.0,2.0,88,0.00,,,0.00,Wunderground v.1.15,2013-01-06 13:42:00,
2013-01-06 07:47:00,21.6,18.3,30.06,West,259,0.0,0.0,87,0.00,,,0.00,Wunderground v.1.15,2013-01-06 13:47:00,
2013-01-06 07:52:00,21.7,18.4,30.06,West,262,1.0,1.0,87,0.00,,,0.00,Wunderground v.1.15,2013-01-06 13:52:00,
2013-01-06 07:57:00,21.7,18.4,30.06,West,261,0.0,0.0,87,0.00,,,0.00,Wunderground v.1.15,2013-01-06 13:57:00,
2013-01-06 08:02:00,21.9,18.6,30.06,WNW,303,0.0,1.0,87,0.00,,,0.00,Wunderground v.1.15,2013-01-06 14:02:00,
2013-01-06 08:07:00,22.2,18.9,30.06,WNW,302,0.0,0.0,87,0.00,,,0.00,Wunderground v.1.15,2013-01-06 14:07:00,
2013-01-06 08:17:00,23.1,19.8,30.07,West,264,1.0,1.0,87,0.00,,,0.00,Wunderground v.1.15,2013-01-06 14:17:00,
2013-01-06 08:22:00,23.7,20.1,30.08,West,269,1.0,2.0,86,0.00,,,0.00,Wunderground v.1.15,2013-01-06 14:22:00,
2013-01-06 08:27:00,24.2,20.3,30.08,NW,317,1.0,1.0,85,0.00,,,0.00,Wunderground v.1.15,2013-01-06 14:27:00,
2013-01-06 08:32:00,24.8,20.9,30.08,WNW,294,1.0,1.0,85,0.00,,,0.00,Wunderground v.1.15,2013-01-06 14:32:00,
2013-01-06 08:42:00,25.6,21.2,30.09,West,265,1.0,1.0,83,0.00,,,0.00,Wunderground v.1.15,2013-01-06 14:42:00,
2013-01-06 08:47:00,26.0,21.3,30.09,West,267,2.0,2.0,82,0.00,,,0.00,Wunderground v.1.15,2013-01-06 14:47:00,
2013-01-06 08:52:00,26.3,21.3,30.09,West,280,1.0,2.0,81,0.00,,,0.00,Wunderground v.1.15,2013-01-06 14:52:00,
2013-01-06 09:02:00,27.1,21.7,30.10,West,269,1.0,3.0,80,0.00,,,0.00,Wunderground v.1.15,2013-01-06 15:02:00,
2013-01-06 09:07:00,27.4,21.7,30.10,WSW,249,1.0,2.0,79,0.00,,,0.00,Wunderground v.1.15,2013-01-06 15:07:00,
2013-01-06 09:12:00,27.5,21.5,30.10,WNW,283,1.0,2.0,78,0.00,,,0.00,Wunderground v.1.15,2013-01-06 15:12:00,
2013-01-06 09:17:00,27.7,21.7,30.10,NNW,329,1.0,1.0,78,0.00,,,0.00,Wunderground v.1.15,2013-01-06 15:17:00,
2013-01-06 09:26:00,27.9,21.6,30.10,West,281,2.0,2.0,77,0.00,,,0.00,Wunderground v.1.15,2013-01-06 15:26:00,
2013-01-06 09:32:00,28.1,21.8,30.11,West,269,1.0,2.0,77,0.00,,,0.00,Wunderground v.1.15,2013-01-06 15:32:00,
2013-01-06 09:37:00,27.9,21.3,30.11,SW,236,1.0,1.0,76,0.00,,,0.00,Wunderground v.1.15,2013-01-06 15:37:00,
2013-01-06 09:46:00,27.2,20.9,30.12,West,273,1.0,2.0,77,0.00,,,0.00,Wunderground v.1.15,2013-01-06 15:46:00,
2013-01-06 09:51:00,27.0,21.1,30.12,WNW,298,1.0,2.0,78,0.00,,,0.00,Wunderground v.1.15,2013-01-06 15:51:00,
2013-01-06 09:56:00,26.8,20.6,30.11,SW,232,1.0,1.0,77,0.00,,,0.00,Wunderground v.1.15,2013-01-06 15:56:00,
2013-01-06 10:01:00,27.0,21.1,30.12,West,272,1.0,1.0,78,0.00,,,0.00,Wunderground v.1.15,2013-01-06 16:01:00,
2013-01-06 10:07:00,27.5,21.5,30.12,West,273,0.0,1.0,78,0.00,,,0.00,Wunderground v.1.15,2013-01-06 16:07:00,
2013-01-06 10:12:00,28.0,21.7,30.12,West,265,1.0,4.0,77,0.00,,,0.00,Wunderground v.1.15,2013-01-06 16:12:00,
2013-01-06 10:17:00,28.3,21.7,30.13,WNW,300,1.0,1.0,76,0.00,,,0.00,Wunderground v.1.15,2013-01-06 16:17:00,
2013-01-06 10:26:00,28.8,22.2,30.13,West,273,1.0,1.0,76,0.00,,,0.00,Wunderground v.1.15,2013-01-06 16:26:00,
2013-01-06 10:31:00,29.3,22.7,30.14,West,281,1.0,1.0,76,0.00,,,0.00,Wunderground v.1.15,2013-01-06 16:31:00,
2013-01-06 10:36:00,29.7,22.7,30.14,West,277,1.0,2.0,75,0.00,,,0.00,Wunderground v.1.15,2013-01-06 16:36:00,
2013-01-06 10:46:00,29.9,22.9,30.13,WNW,283,1.0,1.0,75,0.00,,,0.00,Wunderground v.1.15,2013-01-06 16:46:00,
2013-01-06 10:56:00,30.2,22.9,30.13,WNW,283,1.0,1.0,74,0.00,,,0.00,Wunderground v.1.15,2013-01-06 16:56:00,
2013-01-06 11:06:00,30.7,23.1,30.13,WSW,249,1.0,1.0,73,0.00,,,0.01,Wunderground v.1.15,2013-01-06 17:06:00,
2013-01-06 11:11:00,30.8,23.2,30.13,WNW,285,1.0,2.0,73,0.00,,,0.01,Wunderground v.1.15,2013-01-06 17:11:00,
2013-01-06 11:16:00,31.1,23.5,30.13,West,279,0.0,0.0,73,0.00,,,0.01,Wunderground v.1.15,2013-01-06 17:16:00,
2013-01-06 11:21:00,31.3,23.3,30.13,West,267,0.0,0.0,72,0.00,,,0.01,Wunderground v.1.15,2013-01-06 17:21:00,
2013-01-06 11:26:00,31.5,23.5,30.13,West,271,0.0,0.0,72,0.00,,,0.01,Wunderground v.1.15,2013-01-06 17:26:00,
2013-01-06 11:31:00,31.6,23.6,30.14,NW,323,1.0,1.0,72,0.00,,,0.01,Wunderground v.1.15,2013-01-06 17:31:00,
2013-01-06 11:41:00,31.6,23.3,30.14,West,281,1.0,1.0,71,0.00,,,0.01,Wunderground v.1.15,2013-01-06 17:41:00,
2013-01-06 11:51:00,31.7,23.4,30.14,West,264,1.0,1.0,71,0.00,,,0.01,Wunderground v.1.15,2013-01-06 17:51:00,
2013-01-06 11:56:00,31.3,23.0,30.14,WNW,292,1.0,1.0,71,0.00,,,0.01,Wunderground v.1.15,2013-01-06 17:56:00,
2013-01-06 12:01:00,30.9,22.9,30.14,WNW,292,1.0,1.0,72,0.00,,,0.01,Wunderground v.1.15,2013-01-06 18:01:00,
2013-01-06 12:11:00,30.9,22.9,30.13,SSW,210,0.0,1.0,72,0.00,,,0.01,Wunderground v.1.15,2013-01-06 18:11:00,
2013-01-06 12:16:00,30.7,22.7,30.13,WNW,282,1.0,2.0,72,0.00,,,0.01,Wunderground v.1.15,2013-01-06 18:16:00,
2013-01-06 12:21:00,30.7,23.1,30.13,WNW,282,1.0,2.0,73,0.00,,,0.01,Wunderground v.1.15,2013-01-06 18:21:00,
2013-01-06 12:26:00,30.9,23.3,30.13,West,265,0.0,0.0,73,0.00,,,0.01,Wunderground v.1.15,2013-01-06 18:26:00,
2013-01-06 12:31:00,31.1,23.5,30.13,West,280,0.0,0.0,73,0.00,,,0.01,Wunderground v.1.15,2013-01-06 18:31:00,
2013-01-06 12:36:00,31.1,23.1,30.13,West,280,0.0,0.0,72,0.00,,,0.01,Wunderground v.1.15,2013-01-06 18:36:00,
2013-01-06 12:41:00,31.1,22.8,30.14,WNW,283,1.0,3.0,71,0.00,,,0.01,Wunderground v.1.15,2013-01-06 18:41:00,
2013-01-06 12:47:00,31.0,23.0,30.14,NW,306,1.0,2.0,72,0.00,,,0.01,Wunderground v.1.15,2013-01-06 18:47:00,
2013-01-06 12:57:00,31.2,23.2,30.14,NW,306,0.0,0.0,72,0.00,,,0.01,Wunderground v.1.15,2013-01-06 18:57:00,
2013-01-06 13:02:00,31.2,22.9,30.14,NW,307,0.0,0.0,71,0.00,,,0.01,Wunderground v.1.15,2013-01-06 19:02:00,
2013-01-06 13:07:00,31.2,22.9,30.14,NW,307,0.0,0.0,71,0.00,,,0.01,Wunderground v.1.15,2013-01-06 19:07:00,
2013-01-06 13:17:00,31.1,22.8,30.14,SSW,199,1.0,4.0,71,0.00,,,0.01,Wunderground v.1.15,2013-01-06 19:17:00,
2013-01-06 13:27:00,31.2,22.5,30.14,WSW,257,0.0,0.0,70,0.00,,,0.01,Wunderground v.1.15,2013-01-06 19:27:00,
2013-01-06 13:32:00,31.0,22.7,30.14,WSW,257,0.0,0.0,71,0.00,,,0.01,Wunderground v.1.15,2013-01-06 19:32:00,
2013-01-06 13:37:00,31.1,22.5,30.14,West,263,0.0,0.0,70,0.00,,,0.01,Wunderground v.1.15,2013-01-06 19:37:00,
2013-01-06 13:47:00,31.5,22.8,30.15,West,275,0.0,0.0,70,0.00,,,0.01,Wunderground v.1.15,2013-01-06 19:47:00,
2013-01-06 13:57:00,32.7,22.9,30.15,West,275,1.0,1.0,67,0.00,,,0.01,Wunderground v.1.15,2013-01-06 19:57:00,
2013-01-06 14:07:00,32.7,22.9,30.15,West,275,0.0,1.0,67,0.00,,,0.01,Wunderground v.1.15,2013-01-06 20:07:00,
2013-01-06 14:12:00,32.1,22.4,30.15,SW,215,1.0,1.0,67,0.00,,,0.01,Wunderground v.1.15,2013-01-06 20:12:00,
2013-01-06 14:17:00,32.0,22.6,30.15,SSW,205,1.0,1.0,68,0.00,,,0.01,Wunderground v.1.15,2013-01-06 20:17:00,
2013-01-06 14:22:00,32.3,22.6,30.15,West,277,0.0,1.0,67,0.00,,,0.01,Wunderground v.1.15,2013-01-06 20:22:00,
2013-01-06 14:27:00,32.5,22.8,30.16,West,277,0.0,0.0,67,0.00,,,0.01,Wunderground v.1.15,2013-01-06 20:27:00,
2013-01-06 14:32:00,32.2,22.1,30.16,West,277,0.0,0.0,66,0.00,,,0.01,Wunderground v.1.15,2013-01-06 20:32:00,
2013-01-06 14:37:00,32.2,22.5,30.17,WSW,238,0.0,0.0,67,0.00,,,0.01,Wunderground v.1.15,2013-01-06 20:37:00,
2013-01-06 14:42:00,32.2,22.8,30.17,WSW,257,0.0,2.0,68,0.00,,,0.01,Wunderground v.1.15,2013-01-06 20:42:00,
2013-01-06 14:47:00,31.7,22.3,30.17,West,281,0.0,0.0,68,0.00,,,0.01,Wunderground v.1.15,2013-01-06 20:47:00,
2013-01-06 14:52:00,31.1,22.1,30.18,WNW,287,0.0,0.0,69,0.00,,,0.01,Wunderground v.1.15,2013-01-06 20:52:00,
2013-01-06 14:57:00,30.7,21.7,30.18,WNW,291,0.0,0.0,69,0.00,,,0.01,Wunderground v.1.15,2013-01-06 20:57:00,
2013-01-06 15:02:00,30.4,21.8,30.18,West,281,1.0,3.0,70,0.00,,,0.01,Wunderground v.1.15,2013-01-06 21:02:00,
2013-01-06 15:06:00,29.9,21.3,30.18,West,281,1.0,1.0,70,0.00,,,0.01,Wunderground v.1.15,2013-01-06 21:06:00,
2013-01-06 15:11:00,29.4,21.2,30.19,West,277,1.0,1.0,71,0.00,,,0.01,Wunderground v.1.15,2013-01-06 21:11:00,
2013-01-06 15:16:00,29.2,21.0,30.19,West,278,1.0,1.0,71,0.00,,,0.01,Wunderground v.1.15,2013-01-06 21:16:00,
2013-01-06 15:21:00,28.8,20.9,30.19,WNW,284,1.0,1.0,72,0.00,,,0.01,Wunderground v.1.15,2013-01-06 21:21:00,
2013-01-06 15:26:00,28.3,20.4,30.19,WNW,286,1.0,2.0,72,0.00,,,0.01,Wunderground v.1.15,2013-01-06 21:26:00,
2013-01-06 15:36:00,27.4,20.2,30.20,West,271,1.0,1.0,74,0.00,,,0.01,Wunderground v.1.15,2013-01-06 21:36:00,
2013-01-06 15:41:00,27.1,19.9,30.20,West,273,1.0,1.0,74,0.00,,,0.01,Wunderground v.1.15,2013-01-06 21:41:00,
2013-01-06 15:46:00,26.8,19.9,30.21,West,273,1.0,1.0,75,0.00,,,0.01,Wunderground v.1.15,2013-01-06 21:46:00,
2013-01-06 15:56:00,26.1,19.6,30.22,West,274,0.0,0.0,76,0.00,,,0.01,Wunderground v.1.15,2013-01-06 21:56:00,
2013-01-06 16:01:00,25.7,19.2,30.21,WSW,244,0.0,0.0,76,0.00,,,0.01,Wunderground v.1.15,2013-01-06 22:01:00,
2013-01-06 16:06:00,25.4,19.2,30.22,WSW,245,0.0,0.0,77,0.00,,,0.01,Wunderground v.1.15,2013-01-06 22:06:00,
2013-01-06 16:11:00,25.2,18.7,30.22,West,277,0.0,0.0,76,0.00,,,0.01,Wunderground v.1.15,2013-01-06 22:11:00,
2013-01-06 16:16:00,25.0,18.8,30.23,West,276,0.0,2.0,77,0.00,,,0.01,Wunderground v.1.15,2013-01-06 22:16:00,
2013-01-06 16:26:00,24.2,18.0,30.23,West,276,0.0,0.0,77,0.00,,,0.01,Wunderground v.1.15,2013-01-06 22:26:00,
2013-01-06 16:31:00,23.8,17.9,30.23,West,277,0.0,0.0,78,0.00,,,0.01,Wunderground v.1.15,2013-01-06 22:31:00,
2013-01-06 16:41:00,22.8,17.3,30.23,West,277,0.0,0.0,79,0.00,,,0.01,Wunderground v.1.15,2013-01-06 22:41:00,
2013-01-06 16:46:00,22.5,17.5,30.23,West,276,0.0,0.0,81,0.00,,,0.01,Wunderground v.1.15,2013-01-06 22:46:00,
2013-01-06 16:56:00,21.9,17.0,30.24,West,277,0.0,0.0,81,0.00,,,0.01,Wunderground v.1.15,2013-01-06 22:56:00,
2013-01-06 17:01:00,21.7,17.1,30.24,West,276,0.0,0.0,82,0.00,,,0.01,Wunderground v.1.15,2013-01-06 23:01:00,
2013-01-06 17:11:00,21.6,17.2,30.24,West,277,0.0,0.0,83,0.00,,,0.01,Wunderground v.1.15,2013-01-06 23:11:00,
2013-01-06 17:16:00,21.5,17.1,30.25,West,277,0.0,0.0,83,0.00,,,0.01,Wunderground v.1.15,2013-01-06 23:16:00,
2013-01-06 17:21:00,21.5,17.4,30.25,West,277,0.0,0.0,84,0.00,,,0.01,Wunderground v.1.15,2013-01-06 23:21:00,
2013-01-06 17:26:00,21.5,17.1,30.24,West,277,0.0,0.0,83,0.00,,,0.01,Wunderground v.1.15,2013-01-06 23:26:00,
2013-01-06 17:31:00,21.4,17.0,30.25,West,277,0.0,0.0,83,0.00,,,0.01,Wunderground v.1.15,2013-01-06 23:31:00,
2013-01-06 17:36:00,20.9,16.5,30.25,West,276,0.0,0.0,83,0.00,,,0.01,Wunderground v.1.15,2013-01-06 23:36:00,
2013-01-06 17:47:00,19.7,15.4,30.25,West,276,0.0,0.0,83,0.00,,,0.01,Wunderground v.1.15,2013-01-06 23:47:00,
2013-01-06 17:52:00,19.1,15.1,30.25,West,277,0.0,0.0,84,0.00,,,0.01,Wunderground v.1.15,2013-01-06 23:52:00,
2013-01-06 17:57:00,18.8,14.8,30.26,West,277,0.0,0.0,84,0.00,,,0.01,Wunderground v.1.15,2013-01-06 23:57:00,
2013-01-06 18:02:00,18.4,14.6,30.25,West,277,0.0,0.0,85,0.00,,,0.01,Wunderground v.1.15,2013-01-07 00:02:00,
2013-01-06 18:07:00,18.1,14.6,30.26,West,277,0.0,0.0,86,0.00,,,0.01,Wunderground v.1.15,2013-01-07 00:07:00,
2013-01-06 18:12:00,17.7,14.2,30.26,West,277,0.0,0.0,86,0.00,,,0.01,Wunderground v.1.15,2013-01-07 00:12:00,
2013-01-06 18:17:00,17.3,13.8,30.25,West,277,0.0,0.0,86,0.00,,,0.01,Wunderground v.1.15,2013-01-07 00:17:00,
2013-01-06 18:27:00,16.6,13.4,30.25,West,276,0.0,0.0,87,0.00,,,0.01,Wunderground v.1.15,2013-01-07 00:27:00,
2013-01-06 18:37:00,16.2,13.3,30.25,West,277,0.0,0.0,88,0.00,,,0.01,Wunderground v.1.15,2013-01-07 00:37:00,
2013-01-06 18:42:00,15.5,12.3,30.24,West,277,0.0,0.0,87,0.00,,,0.01,Wunderground v.1.15,2013-01-07 00:42:00,
2013-01-06 18:47:00,15.1,12.2,30.25,West,277,0.0,0.0,88,0.00,,,0.01,Wunderground v.1.15,2013-01-07 00:47:00,
2013-01-06 18:57:00,14.8,11.9,30.25,West,277,0.0,0.0,88,0.00,,,0.01,Wunderground v.1.15,2013-01-07 00:57:00,
2013-01-06 19:02:00,14.2,11.3,30.25,West,276,0.0,0.0,88,0.00,,,0.01,Wunderground v.1.15,2013-01-07 01:02:00,
2013-01-06 19:07:00,13.9,11.0,30.25,West,277,0.0,0.0,88,0.00,,,0.01,Wunderground v.1.15,2013-01-07 01:07:00,
2013-01-06 19:17:00,13.9,11.3,30.26,West,276,0.0,0.0,89,0.00,,,0.01,Wunderground v.1.15,2013-01-07 01:17:00,
2013-01-06 19:22:00,13.9,11.3,30.26,West,277,0.0,0.0,89,0.00,,,0.01,Wunderground v.1.15,2013-01-07 01:22:00,
2013-01-06 19:27:00,13.7,11.1,30.27,West,277,0.0,0.0,89,0.00,,,0.01,Wunderground v.1.15,2013-01-07 01:27:00,
2013-01-06 19:32:00,13.4,10.8,30.27,West,276,0.0,0.0,89,0.00,,,0.01,Wunderground v.1.15,2013-01-07 01:32:00,
2013-01-06 19:37:00,13.0,10.4,30.27,West,277,0.0,0.0,89,0.00,,,0.01,Wunderground v.1.15,2013-01-07 01:37:00,
2013-01-06 19:47:00,12.5,9.9,30.27,West,277,0.0,0.0,89,0.00,,,0.01,Wunderground v.1.15,2013-01-07 01:47:00,
2013-01-06 19:57:00,11.8,9.2,30.26,West,277,0.0,0.0,89,0.00,,,0.01,Wunderground v.1.15,2013-01-07 01:57:00,
2013-01-06 20:06:00,11.2,8.6,30.26,West,276,0.0,0.0,89,0.00,,,0.01,Wunderground v.1.15,2013-01-07 02:06:00,
2013-01-06 20:12:00,11.0,8.4,30.26,West,277,0.0,0.0,89,0.00,,,0.01,Wunderground v.1.15,2013-01-07 02:12:00,
2013-01-06 20:17:00,10.9,8.3,30.26,West,277,0.0,0.0,89,0.00,,,0.01,Wunderground v.1.15,2013-01-07 02:17:00,
2013-01-06 20:22:00,10.9,8.5,30.26,West,276,0.0,0.0,90,0.00,,,0.01,Wunderground v.1.15,2013-01-07 02:22:00,
2013-01-06 20:27:00,10.9,8.5,30.25,West,277,0.0,0.0,90,0.00,,,0.01,Wunderground v.1.15,2013-01-07 02:27:00,
2013-01-06 20:36:00,10.4,7.8,30.25,West,277,0.0,0.0,89,0.00,,,0.01,Wunderground v.1.15,2013-01-07 02:36:00,
2013-01-06 20:46:00,10.2,7.9,30.25,West,276,0.0,0.0,90,0.00,,,0.01,Wunderground v.1.15,2013-01-07 02:46:00,
2013-01-06 20:51:00,10.1,7.8,30.25,West,276,0.0,0.0,90,0.00,,,0.01,Wunderground v.1.15,2013-01-07 02:51:00,
2013-01-06 20:56:00,9.9,7.6,30.25,West,277,0.0,0.0,90,0.00,,,0.01,Wunderground v.1.15,2013-01-07 02:56:00,
2013-01-06 21:06:00,9.9,7.3,30.26,West,277,0.0,0.0,89,0.00,,,0.01,Wunderground v.1.15,2013-01-07 03:06:00,
2013-01-06 21:11:00,9.7,7.1,30.25,West,276,0.0,0.0,89,0.00,,,0.01,Wunderground v.1.15,2013-01-07 03:11:00,
2013-01-06 21:16:00,9.4,6.8,30.26,West,277,0.0,0.0,89,0.00,,,0.01,Wunderground v.1.15,2013-01-07 03:16:00,
2013-01-06 21:21:00,9.0,6.4,30.26,West,276,0.0,0.0,89,0.00,,,0.01,Wunderground v.1.15,2013-01-07 03:21:00,
2013-01-06 21:31:00,8.5,5.9,30.27,West,277,0.0,0.0,89,0.00,,,0.01,Wunderground v.1.15,2013-01-07 03:31:00,
2013-01-06 21:36:00,8.3,5.7,30.27,West,276,0.0,0.0,89,0.00,,,0.01,Wunderground v.1.15,2013-01-07 03:36:00,
2013-01-06 21:41:00,8.1,5.5,30.27,West,277,0.0,0.0,89,0.00,,,0.01,Wunderground v.1.15,2013-01-07 03:41:00,
2013-01-06 21:46:00,8.0,5.4,30.27,West,277,0.0,0.0,89,0.00,,,0.01,Wunderground v.1.15,2013-01-07 03:46:00,
2013-01-06 21:51:00,8.0,5.4,30.27,West,276,0.0,0.0,89,0.00,,,0.01,Wunderground v.1.15,2013-01-07 03:51:00,
2013-01-06 21:56:00,8.0,5.4,30.27,West,277,0.0,0.0,89,0.00,,,0.01,Wunderground v.1.15,2013-01-07 03:56:00,
2013-01-06 22:01:00,8.0,5.4,30.27,West,277,0.0,0.0,89,0.00,,,0.01,Wunderground v.1.15,2013-01-07 04:01:00,
2013-01-06 22:11:00,7.9,5.3,30.27,West,277,0.0,0.0,89,0.00,,,0.01,Wunderground v.1.15,2013-01-07 04:11:00,
2013-01-06 22:16:00,7.9,5.3,30.27,West,276,0.0,0.0,89,0.00,,,0.01,Wunderground v.1.15,2013-01-07 04:16:00,
2013-01-06 22:26:00,7.6,4.8,30.28,West,277,0.0,0.0,88,0.00,,,0.01,Wunderground v.1.15,2013-01-07 04:26:00,
2013-01-06 22:36:00,6.7,3.9,30.27,West,277,0.0,0.0,88,0.00,,,0.01,Wunderground v.1.15,2013-01-07 04:36:00,
2013-01-06 22:41:00,6.5,3.7,30.27,West,277,0.0,0.0,88,0.00,,,0.01,Wunderground v.1.15,2013-01-07 04:41:00,
2013-01-06 22:46:00,6.5,3.7,30.28,West,276,0.0,0.0,88,0.00,,,0.01,Wunderground v.1.15,2013-01-07 04:46:00,
2013-01-06 22:51:00,6.4,3.6,30.28,West,277,0.0,0.0,88,0.00,,,0.01,Wunderground v.1.15,2013-01-07 04:51:00,
2013-01-06 23:01:00,6.2,3.4,30.27,West,277,0.0,0.0,88,0.00,,,0.01,Wunderground v.1.15,2013-01-07 05:01:00,
2013-01-06 23:06:00,6.3,3.5,30.27,West,277,0.0,0.0,88,0.00,,,0.01,Wunderground v.1.15,2013-01-07 05:06:00,
2013-01-06 23:16:00,6.2,3.4,30.27,West,276,0.0,0.0,88,0.00,,,0.01,Wunderground v.1.15,2013-01-07 05:16:00,
2013-01-06 23:21:00,5.8,3.0,30.27,West,277,0.0,0.0,88,0.00,,,0.01,Wunderground v.1.15,2013-01-07 05:21:00,
2013-01-06 23:26:00,5.3,2.3,30.28,West,277,0.0,0.0,87,0.00,,,0.01,Wunderground v.1.15,2013-01-07 05:26:00,
2013-01-06 23:31:00,5.1,2.1,30.28,West,277,0.0,0.0,87,0.00,,,0.01,Wunderground v.1.15,2013-01-07 05:31:00,
2013-01-06 23:41:00,4.6,1.6,30.27,West,276,0.0,0.0,87,0.00,,,0.01,Wunderground v.1.15,2013-01-07 05:41:00,
2013-01-06 23:47:00,4.4,1.4,30.27,West,277,0.0,0.0,87,0.00,,,0.01,Wunderground v.1.15,2013-01-07 05:47:00,
2013-01-06 23:57:00,3.9,0.9,30.27,West,277,0.0,0.0,87,0.00,,,0.01,Wunderground v.1.15,2013-01-07 05:57:00,